DW2470 Weather Reports


Display with metric or nautical units.
time (UTC)temp
F
wind
direction
speed
MPH
gust
MPH
rain 1hr
in
rain 24hr
in
rain mn
in
humidity
%
barometer
mb
20210727073049 69 117 11.0 0.0 0.00 0.00 0.00 66 1006.9
20210727071547 69 113 10.0 0.0 0.00 0.00 0.00 65 1006.9
20210727070036 70 105 11.0 0.0 0.00 0.00 0.00 64 1007.0
20210727063019 70 97 12.0 0.0 0.00 0.00 0.00 62 1006.9
20210727061523 71 98 14.0 0.0 0.00 0.00 0.00 61 1007.0
20210727060017 72 105 15.0 0.0 0.00 0.00 0.00 60 1006.9
20210727053006 73 104 16.0 0.0 0.00 0.00 0.00 61 1006.9
20210727051502 73 112 14.0 0.0 0.00 0.00 0.00 62 1006.8
20210727050207 74 112 12.0 0.0 0.00 0.00 0.00 60 1006.6
20210727044710 75 101 12.0 0.0 0.00 0.00 0.00 59 1006.6
20210727043307 75 106 12.0 0.0 0.00 0.00 0.00 58 1006.6
20210727041745 76 112 12.0 0.0 0.00 0.00 0.00 57 1006.5
20210727040151 77 99 11.0 0.0 0.00 0.00 0.00 57 1006.5
20210727034637 78 97 9.0 0.0 0.00 0.00 0.00 56 1006.3
20210727033215 79 96 11.0 0.0 0.00 0.00 0.00 54 1006.2
20210727031631 80 90 11.0 0.0 0.00 0.00 0.00 51 1005.9
20210727030245 81 79 8.0 0.0 0.00 0.00 0.00 47 1005.9
20210727024700 83 88 9.0 0.0 0.00 0.00 0.00 43 1005.5
20210727023147 84 87 10.0 0.0 0.00 0.00 0.00 42 1005.3
20210727021730 85 62 6.0 0.0 0.00 0.00 0.00 40 1005.0
20210727020152 88 52 3.0 0.0 0.00 0.00 0.00 30 1004.9
20210727014626 90 58 4.0 0.0 0.00 0.00 0.00 29 1004.9
20210727013215 91 55 5.0 0.0 0.00 0.00 0.00 28 1004.9
20210727011813 92 60 6.0 0.0 0.00 0.00 0.00 28 1004.8
20210727010106 93 55 3.0 0.0 0.00 0.00 0.00 26 1004.8
20210727004733 93 41 5.0 0.0 0.00 0.00 0.00 25 1004.9
20210727003129 94 330 5.0 0.0 0.00 0.00 0.00 22 1004.8
20210727001716 94 346 2.0 0.0 0.00 0.00 0.00 22 1004.9
20210727000112 94 289 5.0 0.0 0.00 0.00 0.00 23 1004.9
20210726234643 94 337 2.0 0.0 0.00 0.00 0.00 24 1005.1
20210726233220 93 298 5.0 0.0 0.00 0.00 0.00 24 1005.2
20210726231612 94 302 7.0 0.0 0.00 0.00 0.00 24 1005.3
20210726230059 94 277 6.0 0.0 0.00 0.00 0.00 24 1005.1
20210726224736 93 14 6.0 0.0 0.00 0.00 0.00 24 1005.2
20210726223135 93 325 6.0 0.0 0.00 0.00 0.00 23 1005.2
20210726221557 93 308 8.0 0.0 0.00 0.00 0.00 24 1005.2
20210726220100 93 293 5.0 0.0 0.00 0.00 0.00 25 1005.1
20210726214607 93 266 7.0 0.0 0.00 0.00 0.00 25 1005.2
20210726213102 93 357 7.0 0.0 0.00 0.00 0.00 27 1005.3
20210726211619 93 4 7.0 0.0 0.00 0.00 0.00 27 1005.3
20210726210209 92 29 4.0 0.0 0.00 0.00 0.00 29 1005.4
20210726204642 91 44 6.0 0.0 0.00 0.00 0.00 29 1005.4
20210726203303 91 349 6.0 0.0 0.00 0.00 0.00 30 1005.4
20210726201641 91 4 8.0 0.0 0.00 0.00 0.00 30 1005.5
20210726200149 90 37 6.0 0.0 0.00 0.00 0.00 32 1005.5
20210726194618 89 46 9.0 0.0 0.00 0.00 0.00 33 1005.2
20210726193044 88 49 12.0 0.0 0.00 0.00 0.00 33 1004.9
20210726191622 88 48 11.0 0.0 0.00 0.00 0.00 34 1005.1
20210726190110 88 14 9.0 0.0 0.00 0.00 0.00 35 1005.5
20210726184557 86 14 10.0 0.0 0.00 0.00 0.00 37 1005.5
20210726183024 86 2 9.0 0.0 0.00 0.00 0.00 40 1005.7
20210726181526 84 29 10.0 0.0 0.00 0.00 0.00 39 1005.7
20210726180103 83 28 11.0 0.0 0.00 0.00 0.00 43 1005.7
20210726174534 82 338 13.0 0.0 0.00 0.00 0.00 43 1005.9
20210726173032 83 331 13.0 0.0 0.00 0.00 0.00 42 1006.0
20210726171514 83 295 10.0 0.0 0.00 0.00 0.00 40 1005.6
20210726170015 82 319 9.0 0.0 0.00 0.00 0.00 43 1005.7
20210726164505 81 337 5.0 0.0 0.00 0.00 0.00 41 1005.2
20210726163005 81 322 4.0 0.0 0.00 0.00 0.00 45 1005.2
20210726160203 80 337 2.0 0.0 0.00 0.00 0.00 49 1005.1
20210726154748 78 48 3.0 0.0 0.00 0.00 0.00 53 1005.0
20210726153225 77 107 4.0 0.0 0.00 0.00 0.00 55 1005.2
20210726151642 76 87 6.0 0.0 0.00 0.00 0.00 59 1005.1
20210726150147 74 105 8.0 0.0 0.00 0.00 0.00 60 1005.0
20210726144707 73 104 9.0 0.0 0.00 0.00 0.00 62 1004.9
20210726143153 72 95 8.0 0.0 0.00 0.00 0.00 63 1004.8
20210726141633 71 103 8.0 0.0 0.00 0.00 0.00 65 1004.7
20210726140200 69 120 8.0 0.0 0.00 0.00 0.00 67 1004.7
20210726134626 68 99 10.0 0.0 0.00 0.00 0.00 67 1004.8
20210726133119 67 101 6.0 0.0 0.00 0.00 0.00 68 1004.6
20210726131638 66 116 6.0 0.0 0.00 0.00 0.00 66 1004.8
20210726130048 65 103 5.0 0.0 0.00 0.00 0.00 66 1004.8
20210726124644 65 104 5.0 0.0 0.00 0.00 0.00 67 1004.7
20210726123047 64 102 4.0 0.0 0.00 0.00 0.00 67 1004.6
20210726121552 64 28 2.0 0.0 0.00 0.00 0.00 67 1004.7
20210726120202 64 9 2.0 0.0 0.00 0.00 0.00 67 1004.7
20210726114657 64 9 1.0 0.0 0.00 0.00 0.00 67 1004.7
20210726113107 65 9 1.0 0.0 0.00 0.00 0.00 65 1004.5
20210726111553 65 9 2.0 0.0 0.00 0.00 0.00 63 1004.3
20210726110051 66 2 2.0 0.0 0.00 0.00 0.00 61 1004.3
20210726104559 68 300 1.0 0.0 0.00 0.00 0.00 57 1004.3
20210726103039 67 300 0.0 0.0 0.00 0.00 0.00 55 1004.2
20210726101618 67 300 0.0 0.0 0.00 0.00 0.00 53 1004.2
20210726100125 68 300 1.0 0.0 0.00 0.00 0.00 52 1004.3
20210726094545 69 300 0.0 0.0 0.00 0.00 0.00 50 1004.4
20210726093103 70 183 1.0 0.0 0.00 0.00 0.00 51 1004.3
20210726091621 72 180 3.0 0.0 0.00 0.00 0.00 50 1004.4
20210726090040 72 185 5.0 0.0 0.00 0.00 0.00 51 1004.5
20210726084546 72 167 8.0 0.0 0.00 0.00 0.00 48 1004.5
20210726083036 71 152 10.0 0.0 0.00 0.00 0.00 47 1004.6
20210726081535 68 156 7.0 0.0 0.00 0.00 0.00 49 1004.7
20210726080028 69 147 7.0 0.0 0.00 0.00 0.00 48 1004.8
20210726074523 69 143 7.0 0.0 0.00 0.00 0.00 46 1004.8